createdAt,value
2022-10-21T00:00:13.250Z,12.82
2022-10-21T00:02:39.815Z,12.68
2022-10-21T00:05:06.894Z,12.84
2022-10-21T00:07:34.423Z,12.77
2022-10-21T00:10:00.898Z,13.08
2022-10-21T00:12:29.239Z,13.12
2022-10-21T00:14:57.257Z,13.09
2022-10-21T00:17:24.125Z,13.16
2022-10-21T00:19:50.688Z,12.84
2022-10-21T00:22:17.096Z,12.84
2022-10-21T00:24:43.648Z,12.73
2022-10-21T00:27:10.059Z,12.72
2022-10-21T00:29:36.508Z,12.69
2022-10-21T00:32:03.051Z,12.70
2022-10-21T00:34:31.033Z,12.84
2022-10-21T00:36:57.659Z,12.75
2022-10-21T00:39:24.151Z,12.78
2022-10-21T00:41:50.544Z,12.71
2022-10-21T00:44:17.012Z,12.77
2022-10-21T00:46:54.115Z,12.77
2022-10-21T00:49:29.263Z,12.74
2022-10-21T00:51:59.967Z,12.54
2022-10-21T00:54:27.339Z,12.65
2022-10-21T00:56:56.254Z,12.89
2022-10-21T00:59:31.437Z,12.98
2022-10-21T01:01:57.972Z,13.23
2022-10-21T01:04:24.539Z,13.14
2022-10-21T01:06:51.796Z,13.27
2022-10-21T01:09:19.752Z,13.29
2022-10-21T01:11:48.337Z,13.30
2022-10-21T01:14:39.833Z,13.29
2022-10-21T01:17:52.029Z,13.17
2022-10-21T01:20:49.485Z,13.40
2022-10-21T01:23:34.629Z,13.34
2022-10-21T01:26:27.482Z,13.45
2022-10-21T01:29:03.088Z,13.51
2022-10-21T01:31:39.645Z,13.46
2022-10-21T01:34:15.107Z,13.45
2022-10-21T01:36:50.363Z,13.47
2022-10-21T01:39:33.102Z,13.56
2022-10-21T01:42:12.755Z,13.48
2022-10-21T01:45:16.861Z,13.52
2022-10-21T01:47:49.487Z,13.45
2022-10-21T01:50:26.269Z,13.40
2022-10-21T01:52:57.806Z,13.28
2022-10-21T01:55:29.010Z,13.40
2022-10-21T01:58:18.676Z,13.37
2022-10-21T02:00:47.781Z,13.49
2022-10-21T02:03:20.007Z,13.61
2022-10-21T02:05:46.751Z,13.61
2022-10-21T02:08:13.275Z,13.69
2022-10-21T02:10:44.922Z,13.58
2022-10-21T02:13:14.911Z,13.70
2022-10-21T02:15:43.101Z,13.67
2022-10-21T02:18:19.136Z,13.72
2022-10-21T02:20:45.645Z,13.68
2022-10-21T02:23:15.240Z,13.69
2022-10-21T02:25:46.147Z,13.50
2022-10-21T02:28:13.597Z,13.50
2022-10-21T02:30:49.900Z,13.40
2022-10-21T02:33:23.791Z,13.32
2022-10-21T02:35:59.822Z,13.47
2022-10-21T02:38:28.539Z,13.50
2022-10-21T02:41:03.953Z,13.55
2022-10-21T02:43:38.539Z,13.29
2022-10-21T02:46:13.505Z,13.21
2022-10-21T02:48:43.503Z,13.42
2022-10-21T02:51:10.239Z,13.39
2022-10-21T02:53:37.002Z,13.27
2022-10-21T02:56:04.308Z,13.13
2022-10-21T02:58:31.143Z,13.24
2022-10-21T03:00:57.635Z,13.17
2022-10-21T03:03:24.603Z,12.96
2022-10-21T03:05:51.162Z,13.23
2022-10-21T03:08:17.888Z,13.15
2022-10-21T03:10:46.122Z,13.05
2022-10-21T03:13:14.481Z,12.93
2022-10-21T03:15:40.961Z,13.02
2022-10-21T03:18:07.346Z,12.94
2022-10-21T03:20:33.709Z,12.91
2022-10-21T03:23:00.162Z,12.68
2022-10-21T03:25:26.562Z,12.73
2022-10-21T03:27:53.366Z,12.70
2022-10-21T03:30:19.799Z,12.68
2022-10-21T03:32:46.195Z,12.59
2022-10-21T03:35:12.708Z,12.55
2022-10-21T03:37:39.337Z,12.52
2022-10-21T03:40:09.892Z,12.46
2022-10-21T03:42:38.970Z,12.52
2022-10-21T03:45:06.007Z,12.40
2022-10-21T03:47:32.680Z,12.45
2022-10-21T03:49:59.134Z,12.50
2022-10-21T03:52:25.508Z,12.74
2022-10-21T03:54:51.983Z,12.66
2022-10-21T03:57:18.485Z,12.64
2022-10-21T03:59:44.873Z,12.54
2022-10-21T04:02:11.302Z,12.66
2022-10-21T04:04:37.877Z,12.58
2022-10-21T04:07:04.250Z,12.30
2022-10-21T04:09:30.626Z,12.37
2022-10-21T04:11:57.002Z,12.31
2022-10-21T04:14:23.383Z,12.26
2022-10-21T04:16:53.653Z,12.33
2022-10-21T04:19:28.628Z,12.21
2022-10-21T04:21:55.029Z,12.75
2022-10-21T04:24:21.433Z,12.94
2022-10-21T04:26:47.809Z,12.87
2022-10-21T04:29:14.191Z,12.99
2022-10-21T04:31:40.658Z,12.93
2022-10-21T04:34:07.089Z,12.88
2022-10-21T04:36:33.554Z,12.89
2022-10-21T04:38:59.955Z,12.63
2022-10-21T04:41:26.361Z,12.57
2022-10-21T04:43:52.762Z,12.33
2022-10-21T04:46:20.815Z,12.50
2022-10-21T04:48:47.206Z,12.33
2022-10-21T04:51:13.755Z,12.19
2022-10-21T04:53:40.125Z,12.44
2022-10-21T04:56:06.960Z,12.37
2022-10-21T04:58:33.319Z,12.52
2022-10-21T05:00:59.809Z,12.49
2022-10-21T05:03:26.262Z,12.26
2022-10-21T05:05:53.128Z,12.28
2022-10-21T05:08:20.398Z,12.30
2022-10-21T05:10:47.199Z,12.04
2022-10-21T05:13:14.499Z,12.17
2022-10-21T05:15:40.971Z,11.96
2022-10-21T05:18:07.417Z,12.11
2022-10-21T05:20:33.876Z,12.00
2022-10-21T05:23:00.240Z,11.97
2022-10-21T05:25:29.190Z,11.90
2022-10-21T05:27:59.739Z,12.00
2022-10-21T05:30:26.177Z,11.91
2022-10-21T05:32:52.749Z,11.92
2022-10-21T05:35:19.165Z,11.84
2022-10-21T05:37:45.574Z,11.86
2022-10-21T05:40:12.323Z,11.73
2022-10-21T05:42:38.886Z,11.59
2022-10-21T05:45:06.371Z,11.28
2022-10-21T05:47:33.034Z,11.51
2022-10-21T05:49:59.479Z,11.78
2022-10-21T05:52:25.873Z,11.73
2022-10-21T05:54:52.278Z,11.51
2022-10-21T05:57:18.695Z,11.45
2022-10-21T05:59:45.200Z,11.35
2022-10-21T06:02:11.833Z,11.18
2022-10-21T06:04:39.004Z,11.30
2022-10-21T06:07:05.551Z,11.26
2022-10-21T06:09:31.956Z,11.22
2022-10-21T06:11:58.334Z,11.33
2022-10-21T06:14:26.239Z,11.18
2022-10-21T06:16:52.819Z,11.32
2022-10-21T06:19:19.267Z,11.13
2022-10-21T06:21:47.135Z,11.23
2022-10-21T06:24:13.634Z,11.24
2022-10-21T06:26:40.053Z,11.09
2022-10-21T06:29:07.160Z,11.37
2022-10-21T06:31:33.899Z,11.29
2022-10-21T06:34:00.253Z,11.33
2022-10-21T06:36:26.644Z,11.36
2022-10-21T06:38:53.104Z,11.37
2022-10-21T06:41:19.551Z,11.38
2022-10-21T06:43:45.931Z,11.39
2022-10-21T06:46:14.144Z,11.26
2022-10-21T06:48:40.919Z,11.26
2022-10-21T06:51:15.011Z,11.17
2022-10-21T06:53:42.224Z,11.41
2022-10-21T06:56:11.585Z,11.47
2022-10-21T06:58:39.872Z,11.48
2022-10-21T07:01:21.471Z,11.42
2022-10-21T07:03:57.910Z,11.53
2022-10-21T07:06:24.848Z,11.43
2022-10-21T07:08:58.430Z,11.81
2022-10-21T07:11:26.228Z,11.99
2022-10-21T07:13:52.626Z,11.80
2022-10-21T07:16:25.238Z,11.95
2022-10-21T07:18:52.108Z,12.15
2022-10-21T07:21:20.600Z,12.33
2022-10-21T07:23:49.290Z,12.38
2022-10-21T07:26:15.791Z,12.19
2022-10-21T07:28:46.738Z,12.22
2022-10-21T07:31:17.944Z,12.49
2022-10-21T07:33:44.642Z,12.50
2022-10-21T07:36:14.717Z,12.20
2022-10-21T07:38:46.333Z,12.45
2022-10-21T07:41:24.608Z,12.88
2022-10-21T07:43:51.966Z,13.02
2022-10-21T07:46:19.889Z,13.46
2022-10-21T07:48:46.591Z,13.69
2022-10-21T07:51:16.365Z,13.88
2022-10-21T07:53:43.077Z,13.80
2022-10-21T07:56:21.382Z,13.92
2022-10-21T07:58:47.996Z,13.51
2022-10-21T08:01:15.917Z,14.04
2022-10-21T08:03:42.842Z,14.12
2022-10-21T08:06:10.982Z,14.13
2022-10-21T08:08:38.012Z,13.84
2022-10-21T08:11:05.700Z,13.81
2022-10-21T08:13:32.785Z,13.89
2022-10-21T08:15:59.325Z,13.62
2022-10-21T08:18:26.354Z,13.64
2022-10-21T08:20:53.632Z,13.68
2022-10-21T08:23:22.095Z,13.64
2022-10-21T08:25:53.396Z,13.66
2022-10-21T08:28:21.208Z,13.79
2022-10-21T08:30:47.819Z,13.99
2022-10-21T08:33:15.466Z,14.01
2022-10-21T08:35:42.465Z,14.02
2022-10-21T08:38:09.757Z,13.83
2022-10-21T08:40:44.304Z,13.93
2022-10-21T08:43:20.035Z,13.75
2022-10-21T08:45:52.716Z,13.91
2022-10-21T08:48:26.229Z,13.94
2022-10-21T08:50:57.025Z,14.11
2022-10-21T08:53:38.880Z,14.00
2022-10-21T08:56:09.585Z,13.99
2022-10-21T08:58:36.102Z,14.20
2022-10-21T09:01:23.887Z,14.05
2022-10-21T09:04:15.419Z,14.13
2022-10-21T09:06:44.847Z,14.37
2022-10-21T09:09:32.742Z,14.41
2022-10-21T09:12:17.490Z,14.48
2022-10-21T09:14:54.847Z,14.50
2022-10-21T09:17:38.490Z,14.48
2022-10-21T09:20:47.100Z,14.60
2022-10-21T09:26:12.315Z,14.53
2022-10-21T09:28:38.734Z,14.23
2022-10-21T09:31:15.199Z,14.33
2022-10-21T09:33:47.260Z,14.36
2022-10-21T09:36:39.308Z,14.35
2022-10-21T09:39:19.269Z,14.40
2022-10-21T09:41:55.400Z,14.63
2022-10-21T09:44:25.027Z,14.76
2022-10-21T09:46:53.580Z,14.82
2022-10-21T09:52:21.228Z,14.90
2022-10-21T09:54:48.883Z,14.96
2022-10-21T09:57:15.192Z,15.07
2022-10-21T09:59:57.812Z,15.17
2022-10-21T10:02:38.187Z,15.22
2022-10-21T10:05:33.494Z,15.18
2022-10-21T10:07:59.954Z,15.21
2022-10-21T10:10:34.295Z,15.23
2022-10-21T10:13:01.147Z,15.32
2022-10-21T10:15:36.340Z,15.22
2022-10-21T10:18:03.416Z,15.20
2022-10-21T10:20:29.837Z,15.17
2022-10-21T10:22:59.070Z,15.22
2022-10-21T10:25:33.274Z,15.03
2022-10-21T10:28:16.659Z,14.96
2022-10-21T10:30:42.998Z,15.03
2022-10-21T10:33:16.729Z,15.08
2022-10-21T10:35:58.714Z,14.82
2022-10-21T10:38:54.769Z,14.94
2022-10-21T10:41:28.886Z,14.88
2022-10-21T10:43:56.077Z,15.00
2022-10-21T10:46:26.909Z,15.05
2022-10-21T10:48:55.489Z,14.96
2022-10-21T10:51:33.569Z,15.05
2022-10-21T10:54:19.876Z,14.89
2022-10-21T10:57:18.631Z,15.08
2022-10-21T10:59:45.027Z,14.87
2022-10-21T11:02:12.176Z,15.05
2022-10-21T11:04:42.525Z,14.97
2022-10-21T11:07:21.441Z,15.00
2022-10-21T11:09:51.186Z,15.00
2022-10-21T11:12:23.837Z,14.91
2022-10-21T11:14:56.263Z,14.95
2022-10-21T11:17:31.041Z,15.12
2022-10-21T11:20:15.174Z,15.25
2022-10-21T11:22:41.779Z,15.21
2022-10-21T11:25:50.492Z,15.34
2022-10-21T11:28:29.832Z,15.33
2022-10-21T11:31:20.931Z,15.40
2022-10-21T11:33:56.809Z,15.35
2022-10-21T11:36:38.507Z,15.13
2022-10-21T11:39:31.033Z,15.13
2022-10-21T11:42:11.858Z,14.76
2022-10-21T11:45:15.250Z,14.50
2022-10-21T11:47:59.191Z,14.30
2022-10-21T11:50:39.323Z,14.10
2022-10-21T11:53:55.560Z,13.93
2022-10-21T11:56:26.132Z,13.88
2022-10-21T11:59:17.080Z,13.86
2022-10-21T12:02:22.044Z,13.74
2022-10-21T12:04:56.052Z,13.65
2022-10-21T12:07:59.814Z,13.62
2022-10-21T12:10:35.948Z,13.59
2022-10-21T12:13:13.437Z,13.63
2022-10-21T12:15:46.252Z,13.74
2022-10-21T12:18:20.455Z,13.65
2022-10-21T12:20:51.184Z,13.70
2022-10-21T12:23:23.534Z,14.00
2022-10-21T12:26:00.363Z,13.81
2022-10-21T12:28:37.901Z,13.95
2022-10-21T12:31:28.142Z,13.87
2022-10-21T12:33:55.391Z,13.95
2022-10-21T12:36:24.739Z,14.07
2022-10-21T12:38:58.915Z,14.14
2022-10-21T12:41:37.675Z,13.98
2022-10-21T12:44:21.279Z,14.11
2022-10-21T12:46:56.443Z,14.02
2022-10-21T12:49:35.933Z,14.20
2022-10-21T12:52:02.236Z,14.07
2022-10-21T12:54:35.369Z,14.26
2022-10-21T12:57:05.985Z,14.44
2022-10-21T12:59:36.443Z,14.43
2022-10-21T13:02:05.973Z,14.49
2022-10-21T13:04:32.345Z,14.89
2022-10-21T13:06:58.648Z,14.68
2022-10-21T13:09:36.563Z,14.66
2022-10-21T13:12:08.972Z,14.59
2022-10-21T13:14:50.388Z,14.79
2022-10-21T13:17:19.906Z,14.72
2022-10-21T13:19:47.541Z,14.62
2022-10-21T13:22:42.831Z,14.64
2022-10-21T13:25:31.940Z,14.96
2022-10-21T13:28:20.306Z,15.04
2022-10-21T13:30:50.220Z,14.90
2022-10-21T13:33:22.690Z,14.84
2022-10-21T13:35:56.395Z,14.38
2022-10-21T13:38:28.165Z,14.67
2022-10-21T13:41:04.028Z,14.47
2022-10-21T13:43:39.473Z,14.47
2022-10-21T13:46:13.613Z,14.42
2022-10-21T13:48:42.381Z,14.40
2022-10-21T13:51:19.935Z,14.36
2022-10-21T13:53:47.242Z,14.36
2022-10-21T13:56:23.468Z,14.40
2022-10-21T13:58:50.311Z,14.67
2022-10-21T14:01:22.760Z,14.51
2022-10-21T14:03:49.931Z,14.46
2022-10-21T14:06:36.303Z,14.54
2022-10-21T14:09:08.009Z,14.70
2022-10-21T14:11:42.038Z,14.70
2022-10-21T14:14:12.744Z,14.75
2022-10-21T14:16:42.596Z,14.54
2022-10-21T14:19:19.928Z,14.53
2022-10-21T14:21:49.269Z,14.81
2022-10-21T14:24:31.666Z,14.82
2022-10-21T14:26:58.328Z,15.01
2022-10-21T14:29:27.523Z,14.91
2022-10-21T14:31:54.268Z,15.29
2022-10-21T14:34:25.907Z,14.79
2022-10-21T14:37:11.799Z,14.98
2022-10-21T14:39:39.659Z,14.88
2022-10-21T14:42:17.545Z,15.13
2022-10-21T14:44:46.351Z,14.74
2022-10-21T14:47:30.799Z,14.88
2022-10-21T14:50:00.693Z,14.91
2022-10-21T14:52:38.320Z,14.92
2022-10-21T14:55:13.176Z,14.76
2022-10-21T14:57:45.628Z,14.75
2022-10-21T15:00:31.553Z,14.58
2022-10-21T15:03:00.397Z,14.65
2022-10-21T15:05:49.433Z,14.66
2022-10-21T15:08:19.184Z,14.61
2022-10-21T15:10:46.675Z,14.67
2022-10-21T15:13:20.286Z,14.73
2022-10-21T15:15:52.613Z,14.69
2022-10-21T15:18:26.426Z,14.73
2022-10-21T15:20:59.923Z,14.76
2022-10-21T15:23:29.032Z,14.75
2022-10-21T15:26:24.116Z,14.68
2022-10-21T15:28:52.915Z,14.57
2022-10-21T15:31:22.298Z,14.71
2022-10-21T15:33:50.433Z,14.64
2022-10-21T15:36:18.949Z,14.58
2022-10-21T15:38:46.730Z,14.60
2022-10-21T15:41:25.437Z,14.04
2022-10-21T15:44:16.065Z,14.63
2022-10-21T15:46:46.359Z,14.65
2022-10-21T15:49:18.444Z,14.62
2022-10-21T15:51:45.848Z,14.61
2022-10-21T15:54:12.843Z,14.53
2022-10-21T15:56:39.457Z,14.51
2022-10-21T15:59:06.176Z,14.49
2022-10-21T16:01:32.940Z,14.50
2022-10-21T16:03:59.420Z,14.46
2022-10-21T16:06:26.095Z,14.42
2022-10-21T16:08:53.415Z,14.41
2022-10-21T16:11:29.701Z,14.37
2022-10-21T16:14:09.999Z,14.42
2022-10-21T16:16:38.357Z,14.47
2022-10-21T16:19:05.161Z,14.37
2022-10-21T16:21:31.869Z,14.24
2022-10-21T16:23:58.518Z,14.31
2022-10-21T16:26:27.349Z,14.32
2022-10-21T16:28:56.655Z,14.35
2022-10-21T16:31:26.169Z,14.33
2022-10-21T16:33:52.807Z,14.22
2022-10-21T16:36:41.097Z,14.31
2022-10-21T16:39:14.924Z,14.38
2022-10-21T16:41:41.316Z,14.42
2022-10-21T16:44:07.680Z,14.45
2022-10-21T16:46:40.390Z,14.52
2022-10-21T16:49:13.051Z,14.56
2022-10-21T16:51:42.219Z,14.52
2022-10-21T16:54:08.612Z,14.44
2022-10-21T16:56:35.235Z,14.49
2022-10-21T16:59:01.696Z,14.40
2022-10-21T17:01:28.148Z,14.49
2022-10-21T17:03:54.653Z,14.56
2022-10-21T17:06:23.803Z,14.55
2022-10-21T17:08:51.970Z,14.43
2022-10-21T17:11:39.770Z,14.48
2022-10-21T17:14:08.429Z,14.48
2022-10-21T17:16:34.970Z,14.46
2022-10-21T17:19:01.431Z,14.48
2022-10-21T17:21:31.206Z,14.43
2022-10-21T17:23:58.997Z,14.39
2022-10-21T17:26:25.661Z,14.39
2022-10-21T17:28:52.252Z,14.33
2022-10-21T17:31:22.617Z,14.27
2022-10-21T17:33:50.215Z,14.28
2022-10-21T17:36:17.985Z,14.30
2022-10-21T17:38:44.418Z,14.29
2022-10-21T17:41:13.318Z,14.31
2022-10-21T17:43:39.749Z,14.02
2022-10-21T17:46:06.549Z,14.32
2022-10-21T17:48:33.578Z,14.34
2022-10-21T17:51:01.737Z,14.36
2022-10-21T17:53:29.236Z,14.38
2022-10-21T17:56:06.969Z,14.28
2022-10-21T17:58:34.043Z,14.33
2022-10-21T18:01:05.776Z,14.42
2022-10-21T18:03:32.730Z,14.42
2022-10-21T18:05:59.181Z,14.51
2022-10-21T18:08:25.584Z,14.53
2022-10-21T18:10:58.240Z,14.39
2022-10-21T18:13:26.562Z,14.48
2022-10-21T18:15:54.127Z,14.47
2022-10-21T18:18:22.302Z,14.51
2022-10-21T18:20:49.078Z,14.64
2022-10-21T18:23:15.897Z,14.54
2022-10-21T18:25:42.855Z,14.71
2022-10-21T18:28:09.786Z,14.57
2022-10-21T18:30:42.332Z,14.64
2022-10-21T18:33:09.037Z,14.67
2022-10-21T18:35:35.547Z,14.55
2022-10-21T18:38:01.972Z,14.21
2022-10-21T18:40:28.483Z,14.31
2022-10-21T18:42:54.982Z,14.29
2022-10-21T18:45:22.713Z,14.18
2022-10-21T18:47:51.200Z,14.11
2022-10-21T18:50:18.009Z,14.07
2022-10-21T18:52:44.468Z,14.00
2022-10-21T18:55:10.927Z,14.02
2022-10-21T18:57:37.743Z,14.02
2022-10-21T19:00:05.550Z,13.95
2022-10-21T19:02:31.952Z,13.89
2022-10-21T19:05:01.218Z,13.87
2022-10-21T19:07:28.735Z,13.80
2022-10-21T19:09:55.182Z,13.80
2022-10-21T19:12:23.528Z,13.75
2022-10-21T19:14:50.399Z,13.76
2022-10-21T19:17:16.957Z,13.71
2022-10-21T19:19:43.688Z,13.66
2022-10-21T19:22:10.200Z,13.64
2022-10-21T19:24:36.800Z,13.63
2022-10-21T19:27:03.349Z,13.58
2022-10-21T19:29:29.751Z,13.64
2022-10-21T19:31:56.987Z,13.58
2022-10-21T19:34:26.268Z,13.42
2022-10-21T19:36:52.986Z,13.39
2022-10-21T19:39:20.105Z,13.42
2022-10-21T19:41:46.768Z,13.45
2022-10-21T19:44:13.598Z,13.49
2022-10-21T19:46:40.159Z,13.53
2022-10-21T19:49:09.371Z,13.56
2022-10-21T19:51:36.656Z,13.60
2022-10-21T19:54:05.353Z,13.63
2022-10-21T19:56:34.475Z,13.61
2022-10-21T19:59:04.525Z,13.70
2022-10-21T20:01:32.889Z,13.67
2022-10-21T20:04:01.364Z,13.62
2022-10-21T20:06:33.369Z,13.71
2022-10-21T20:09:09.810Z,13.64
2022-10-21T20:11:36.833Z,13.44
2022-10-21T20:14:04.255Z,13.34
2022-10-21T20:16:36.775Z,13.47
2022-10-21T20:19:06.008Z,13.52
2022-10-21T20:21:33.931Z,13.43
2022-10-21T20:24:00.987Z,13.42
2022-10-21T20:26:29.004Z,13.46
2022-10-21T20:28:56.504Z,13.36
2022-10-21T20:31:23.820Z,13.34
2022-10-21T20:33:51.774Z,13.39
2022-10-21T20:36:24.391Z,13.39
2022-10-21T20:38:52.344Z,13.44
2022-10-21T20:41:25.717Z,13.52
2022-10-21T20:43:53.451Z,13.12
2022-10-21T20:46:22.348Z,13.43
2022-10-21T20:48:50.741Z,13.34
2022-10-21T20:51:20.444Z,13.43
2022-10-21T20:53:49.402Z,13.53
2022-10-21T20:56:16.209Z,13.35
2022-10-21T20:58:42.972Z,13.53
2022-10-21T21:01:25.438Z,13.55
2022-10-21T21:03:58.597Z,13.60
2022-10-21T21:06:26.123Z,13.58
2022-10-21T21:09:15.093Z,13.66
2022-10-21T21:11:39.523Z,13.66
2022-10-21T21:14:06.115Z,13.73
2022-10-21T21:16:33.837Z,13.76
2022-10-21T21:19:03.201Z,13.82
2022-10-21T21:21:30.875Z,13.76
2022-10-21T21:23:58.058Z,13.78
2022-10-21T21:26:26.818Z,13.75
2022-10-21T21:28:54.034Z,13.80
2022-10-21T21:31:22.447Z,13.73
2022-10-21T21:33:49.257Z,13.63
2022-10-21T21:36:17.320Z,13.80
2022-10-21T21:38:43.875Z,13.78
2022-10-21T21:41:10.917Z,13.84
2022-10-21T21:43:37.965Z,13.84
2022-10-21T21:46:04.530Z,13.93
2022-10-21T21:48:32.118Z,13.84
2022-10-21T21:51:07.129Z,13.88
2022-10-21T21:53:33.504Z,13.99
2022-10-21T21:56:04.892Z,13.94
2022-10-21T21:58:32.116Z,13.86
2022-10-21T22:01:11.760Z,13.94
2022-10-21T22:03:39.017Z,13.99
2022-10-21T22:06:05.563Z,13.87
2022-10-21T22:08:33.379Z,13.97
2022-10-21T22:11:11.559Z,13.99
2022-10-21T22:13:38.897Z,14.00
2022-10-21T22:16:06.486Z,13.96
2022-10-21T22:18:33.195Z,13.86
2022-10-21T22:21:06.157Z,13.96
2022-10-21T22:23:33.300Z,14.02
2022-10-21T22:26:00.110Z,14.01
2022-10-21T22:28:27.162Z,13.92
2022-10-21T22:31:06.570Z,13.74
2022-10-21T22:33:33.480Z,13.91
2022-10-21T22:36:00.787Z,13.69
2022-10-21T22:38:29.211Z,13.63
2022-10-21T22:40:57.885Z,13.83
2022-10-21T22:43:26.045Z,13.75
2022-10-21T22:45:55.257Z,13.82
2022-10-21T22:48:27.846Z,13.78
2022-10-21T22:50:54.355Z,13.74
2022-10-21T22:53:21.199Z,13.77
2022-10-21T22:55:47.607Z,13.79
2022-10-21T22:58:22.099Z,13.75
2022-10-21T23:00:49.931Z,13.77
2022-10-21T23:03:18.781Z,13.65
2022-10-21T23:05:46.519Z,13.66
2022-10-21T23:08:13.190Z,13.54
2022-10-21T23:10:39.650Z,13.64
2022-10-21T23:13:06.252Z,13.67
2022-10-21T23:15:34.319Z,13.70
2022-10-21T23:18:01.178Z,13.66
2022-10-21T23:20:27.893Z,13.76
2022-10-21T23:22:54.287Z,13.68
2022-10-21T23:25:22.879Z,13.79
2022-10-21T23:27:50.006Z,13.81
2022-10-21T23:30:17.144Z,13.63
2022-10-21T23:32:43.523Z,13.77
2022-10-21T23:35:10.355Z,13.68
2022-10-21T23:37:37.152Z,13.79
2022-10-21T23:40:05.051Z,13.70
2022-10-21T23:42:31.472Z,13.83
2022-10-21T23:44:57.885Z,13.81
2022-10-21T23:47:24.299Z,13.75
2022-10-21T23:49:50.670Z,13.79
2022-10-21T23:52:17.105Z,13.74
2022-10-21T23:54:43.476Z,13.80
2022-10-21T23:57:09.837Z,13.84
2022-10-21T23:59:36.525Z,13.83
